createdAt,value
2018-06-18T00:00:35.974Z,16.90
2018-06-18T00:03:03.512Z,16.90
2018-06-18T00:05:31.029Z,16.90
2018-06-18T00:07:58.552Z,16.90
2018-06-18T00:10:26.080Z,16.80
2018-06-18T00:12:53.630Z,16.80
2018-06-18T00:15:21.196Z,16.70
2018-06-18T00:17:48.708Z,16.70
2018-06-18T00:20:16.277Z,16.70
2018-06-18T00:22:43.820Z,16.80
2018-06-18T00:25:11.354Z,16.80
2018-06-18T00:27:38.930Z,16.80
2018-06-18T00:30:06.468Z,16.80
2018-06-18T00:32:33.982Z,16.70
2018-06-18T00:35:01.515Z,16.70
2018-06-18T00:37:29.091Z,16.70
2018-06-18T00:39:56.654Z,16.70
2018-06-18T00:42:24.254Z,16.70
2018-06-18T00:44:51.769Z,16.70
2018-06-18T00:47:19.347Z,16.60
2018-06-18T00:49:46.877Z,16.60
2018-06-18T00:52:14.387Z,16.60
2018-06-18T00:54:41.926Z,16.60
2018-06-18T00:57:09.504Z,16.60
2018-06-18T00:59:37.082Z,16.60
2018-06-18T01:02:04.648Z,16.60
2018-06-18T01:04:32.189Z,16.60
2018-06-18T01:06:59.705Z,16.60
2018-06-18T01:09:27.208Z,16.60
2018-06-18T01:11:54.740Z,16.60
2018-06-18T01:14:23.187Z,16.50
2018-06-18T01:16:50.719Z,16.50
2018-06-18T01:19:18.243Z,16.50
2018-06-18T01:21:45.831Z,16.50
2018-06-18T01:25:19.127Z,16.40
2018-06-18T01:27:46.655Z,16.50
2018-06-18T01:30:14.199Z,16.50
2018-06-18T01:32:41.808Z,16.60
2018-06-18T01:35:09.446Z,16.70
2018-06-18T01:37:36.973Z,16.60
2018-06-18T01:40:04.567Z,16.60
2018-06-18T01:42:32.184Z,16.60
2018-06-18T01:44:59.712Z,16.50
2018-06-18T01:47:27.264Z,16.50
2018-06-18T01:49:54.793Z,16.50
2018-06-18T01:52:22.322Z,16.50
2018-06-18T01:54:49.836Z,16.50
2018-06-18T01:57:17.412Z,16.50
2018-06-18T01:59:44.949Z,16.50
2018-06-18T02:02:12.485Z,16.40
2018-06-18T02:04:40.013Z,16.40
2018-06-18T02:07:07.549Z,16.40
2018-06-18T02:09:35.075Z,16.40
2018-06-18T02:12:02.613Z,16.40
2018-06-18T02:14:30.098Z,16.30
2018-06-18T02:16:57.607Z,16.30
2018-06-18T02:19:25.128Z,16.30
2018-06-18T02:21:52.705Z,16.30
2018-06-18T02:24:20.814Z,16.30
2018-06-18T02:26:52.926Z,16.30
2018-06-18T02:29:26.061Z,16.20
2018-06-18T02:31:59.165Z,16.20
2018-06-18T02:34:32.404Z,16.20
2018-06-18T02:39:10.287Z,16.10
2018-06-18T02:41:37.802Z,16.10
2018-06-18T02:44:05.385Z,16.10
2018-06-18T02:46:32.988Z,16.20
2018-06-18T02:49:00.523Z,16.10
2018-06-18T02:51:28.050Z,16.10
2018-06-18T02:53:55.552Z,16.10
2018-06-18T02:56:57.183Z,16.10
2018-06-18T02:59:24.788Z,16.10
2018-06-18T03:01:52.389Z,16.10
2018-06-18T03:04:19.928Z,16.10
2018-06-18T03:06:47.534Z,16.10
2018-06-18T03:09:15.053Z,16.10
2018-06-18T03:11:42.568Z,16.10
2018-06-18T03:14:10.106Z,16.10
2018-06-18T03:16:37.732Z,16.00
2018-06-18T03:19:10.958Z,16.10
2018-06-18T03:21:44.123Z,16.10
2018-06-18T03:24:17.377Z,16.00
2018-06-18T03:26:50.450Z,16.00
2018-06-18T03:31:51.856Z,16.00
2018-06-18T03:34:19.377Z,16.00
2018-06-18T03:36:46.997Z,16.10
2018-06-18T03:39:14.568Z,16.10
2018-06-18T03:41:44.565Z,16.10
2018-06-18T03:44:18.266Z,16.10
2018-06-18T03:46:45.841Z,16.10
2018-06-18T03:49:13.363Z,16.10
2018-06-18T03:51:40.892Z,16.10
2018-06-18T03:54:08.399Z,16.00
2018-06-18T03:56:35.930Z,16.00
2018-06-18T03:59:03.502Z,16.00
2018-06-18T04:01:48.969Z,16.00
2018-06-18T04:04:22.164Z,16.00
2018-06-18T04:06:55.383Z,16.00
2018-06-18T04:09:28.611Z,16.00
2018-06-18T04:12:01.801Z,16.00
2018-06-18T04:14:29.328Z,16.00
2018-06-18T04:16:56.837Z,16.10
2018-06-18T04:19:24.389Z,16.10
2018-06-18T04:21:51.905Z,16.30
2018-06-18T04:24:19.439Z,16.30
2018-06-18T04:26:46.949Z,16.30
2018-06-18T04:29:14.478Z,16.40
2018-06-18T04:31:42.013Z,16.40
2018-06-18T04:34:22.419Z,16.50
2018-06-18T04:36:50.001Z,16.60
2018-06-18T04:39:17.527Z,16.80
2018-06-18T04:41:50.908Z,17.10
2018-06-18T04:44:24.104Z,17.20
2018-06-18T04:46:57.248Z,17.40
2018-06-18T04:49:30.459Z,17.60
2018-06-18T04:51:58.016Z,17.70
2018-06-18T04:54:25.560Z,17.90
2018-06-18T04:56:53.071Z,18.00
2018-06-18T04:59:20.670Z,17.90
2018-06-18T05:01:48.174Z,17.90
2018-06-18T05:04:15.725Z,17.90
2018-06-18T05:06:43.262Z,17.80
2018-06-18T05:09:37.193Z,17.80
2018-06-18T05:12:04.716Z,17.80
2018-06-18T05:14:32.299Z,17.80
2018-06-18T05:16:59.846Z,17.80
2018-06-18T05:19:27.353Z,17.90
2018-06-18T05:21:54.884Z,17.90
2018-06-18T05:24:22.430Z,17.80
2018-06-18T05:26:51.860Z,17.60
2018-06-18T05:29:20.981Z,17.50
2018-06-18T05:31:48.524Z,17.40
2018-06-18T05:34:18.525Z,17.20
2018-06-18T05:36:46.180Z,17.10
2018-06-18T05:39:13.728Z,17.10
2018-06-18T05:41:41.295Z,17.00
2018-06-18T05:44:08.849Z,17.00
2018-06-18T05:46:36.416Z,16.90
2018-06-18T05:49:04.016Z,16.90
2018-06-18T05:51:31.541Z,16.90
2018-06-18T05:53:59.076Z,16.80
2018-06-18T05:56:26.640Z,16.80
2018-06-18T05:58:54.322Z,16.80
2018-06-18T06:01:21.867Z,16.90
2018-06-18T06:03:49.406Z,16.90
2018-06-18T06:06:16.940Z,17.00
2018-06-18T06:08:44.462Z,17.10
2018-06-18T06:11:11.997Z,17.10
2018-06-18T06:13:39.537Z,17.20
2018-06-18T06:18:34.607Z,17.30
2018-06-18T06:21:04.353Z,17.40
2018-06-18T06:23:31.866Z,17.60
2018-06-18T06:25:59.405Z,17.80
2018-06-18T06:28:26.974Z,17.90
2018-06-18T06:30:54.625Z,18.10
2018-06-18T06:33:23.291Z,18.20
2018-06-18T06:35:51.145Z,18.20
2018-06-18T06:38:18.703Z,18.20
2018-06-18T06:40:46.245Z,18.30
2018-06-18T06:43:13.773Z,18.30
2018-06-18T06:45:41.291Z,18.40
2018-06-18T06:48:08.859Z,18.50
2018-06-18T06:50:36.399Z,18.50
2018-06-18T06:53:03.941Z,18.50
2018-06-18T06:55:31.502Z,18.40
2018-06-18T06:57:59.304Z,18.40
2018-06-18T07:00:26.842Z,18.40
2018-06-18T07:02:54.358Z,18.50
2018-06-18T07:05:21.931Z,18.50
2018-06-18T07:07:49.478Z,18.70
2018-06-18T07:10:17.001Z,18.80
2018-06-18T07:12:44.554Z,19.00
2018-06-18T07:15:12.168Z,19.00
2018-06-18T07:17:40.175Z,19.10
2018-06-18T07:20:07.756Z,19.30
2018-06-18T07:22:35.326Z,19.40
2018-06-18T07:25:02.912Z,19.60
2018-06-18T07:27:30.422Z,19.70
2018-06-18T07:29:57.952Z,19.80
2018-06-18T07:32:25.484Z,19.80
2018-06-18T07:34:53.012Z,19.90
2018-06-18T07:37:20.577Z,20.00
2018-06-18T07:39:48.117Z,20.00
2018-06-18T07:42:15.641Z,20.20
2018-06-18T07:44:43.185Z,20.30
2018-06-18T07:47:10.728Z,20.40
2018-06-18T07:49:38.291Z,20.30
2018-06-18T07:52:05.846Z,20.30
2018-06-18T07:54:33.398Z,20.30
2018-06-18T07:57:00.954Z,20.10
2018-06-18T07:59:28.548Z,20.00
2018-06-18T08:01:56.103Z,20.00
2018-06-18T08:04:24.047Z,19.90
2018-06-18T08:06:51.680Z,19.80
2018-06-18T08:09:19.242Z,19.90
2018-06-18T08:11:46.790Z,20.00
2018-06-18T08:14:14.340Z,20.20
2018-06-18T08:16:41.882Z,20.40
2018-06-18T08:19:09.437Z,20.40
2018-06-18T08:21:36.996Z,20.40
2018-06-18T08:24:04.784Z,20.40
2018-06-18T08:26:32.321Z,20.50
2018-06-18T08:28:59.856Z,20.60
2018-06-18T08:31:27.386Z,20.60
2018-06-18T08:33:54.947Z,20.70
2018-06-18T08:36:22.477Z,20.70
2018-06-18T08:38:50.025Z,20.70
2018-06-18T08:41:17.603Z,20.70
2018-06-18T08:43:45.131Z,20.80
2018-06-18T08:46:12.676Z,20.80
2018-06-18T08:48:45.905Z,20.90
2018-06-18T08:51:19.027Z,20.90
2018-06-18T08:53:52.175Z,20.90
2018-06-18T08:56:25.433Z,20.90
2018-06-18T08:58:58.698Z,20.90
2018-06-18T09:04:06.340Z,21.10
2018-06-18T09:06:33.863Z,21.10
2018-06-18T09:09:01.391Z,21.00
2018-06-18T09:11:28.955Z,21.10
2018-06-18T09:13:56.500Z,21.30
2018-06-18T09:16:24.048Z,21.40
2018-06-18T09:18:51.878Z,21.60
2018-06-18T09:21:19.463Z,21.70
2018-06-18T09:23:47.062Z,21.80
2018-06-18T09:26:14.609Z,21.80
2018-06-18T09:28:42.181Z,22.00
2018-06-18T09:31:09.702Z,22.20
2018-06-18T09:33:37.322Z,22.30
2018-06-18T09:36:04.893Z,22.30
2018-06-18T09:38:32.447Z,22.40
2018-06-18T09:40:59.998Z,22.60
2018-06-18T09:43:27.539Z,22.90
2018-06-18T09:45:55.063Z,23.00
2018-06-18T09:48:27.179Z,22.90
2018-06-18T09:51:00.378Z,22.70
2018-06-18T09:53:33.580Z,22.40
2018-06-18T09:56:06.702Z,22.40
2018-06-18T09:58:39.798Z,22.60
2018-06-18T10:01:15.606Z,22.90
2018-06-18T10:03:43.255Z,23.20
2018-06-18T10:06:10.796Z,23.30
2018-06-18T10:08:38.419Z,23.50
2018-06-18T10:11:05.929Z,23.50
2018-06-18T10:13:33.454Z,23.60
2018-06-18T10:16:01.020Z,24.00
2018-06-18T10:18:28.624Z,24.50
2018-06-18T10:20:56.220Z,25.10
2018-06-18T10:23:23.743Z,25.40
2018-06-18T10:25:51.283Z,25.40
2018-06-18T10:28:18.855Z,25.60
2018-06-18T10:30:46.430Z,25.50
2018-06-18T10:33:19.603Z,25.30
2018-06-18T10:35:52.779Z,25.20
2018-06-18T10:38:26.035Z,25.10
2018-06-18T10:40:59.151Z,25.10
2018-06-18T10:43:30.233Z,25.10
2018-06-18T10:45:57.782Z,25.20
2018-06-18T10:48:25.507Z,25.40
2018-06-18T10:50:53.904Z,25.70
2018-06-18T10:53:21.613Z,25.90
2018-06-18T10:55:49.177Z,25.90
2018-06-18T10:58:16.858Z,25.80
2018-06-18T11:00:46.273Z,25.70
2018-06-18T11:03:14.011Z,25.70
2018-06-18T11:05:47.023Z,25.60
2018-06-18T11:08:14.590Z,25.50
2018-06-18T11:10:42.106Z,25.60
2018-06-18T11:13:09.632Z,25.50
2018-06-18T11:15:37.159Z,25.50
2018-06-18T11:18:10.257Z,25.30
2018-06-18T11:20:43.507Z,25.10
2018-06-18T11:23:16.727Z,25.20
2018-06-18T11:25:49.873Z,25.60
2018-06-18T11:28:17.469Z,26.30
2018-06-18T11:30:44.953Z,26.90
2018-06-18T11:33:12.506Z,27.00
2018-06-18T11:35:40.072Z,26.80
2018-06-18T11:38:07.625Z,26.60
2018-06-18T11:40:35.163Z,26.80
2018-06-18T11:43:02.716Z,27.20
2018-06-18T11:45:30.312Z,27.30
2018-06-18T11:48:22.511Z,27.10
2018-06-18T11:50:50.285Z,26.90
2018-06-18T11:53:18.578Z,26.90
2018-06-18T11:55:46.172Z,27.20
2018-06-18T11:58:18.488Z,27.50
2018-06-18T12:00:51.668Z,27.70
2018-06-18T12:03:24.981Z,27.50
2018-06-18T12:05:57.958Z,27.50
2018-06-18T12:08:31.058Z,27.80
2018-06-18T12:10:58.692Z,28.10
2018-06-18T12:13:26.248Z,28.20
2018-06-18T12:15:53.772Z,28.10
2018-06-18T12:18:21.320Z,28.00
2018-06-18T12:20:48.909Z,27.90
2018-06-18T12:23:16.439Z,27.90
2018-06-18T12:25:44.020Z,27.90
2018-06-18T12:28:11.627Z,27.90
2018-06-18T12:30:39.144Z,27.90
2018-06-18T12:33:06.722Z,27.70
2018-06-18T12:35:34.288Z,27.80
2018-06-18T12:38:01.854Z,28.20
2018-06-18T12:40:29.399Z,28.50
2018-06-18T12:42:57.004Z,28.50
2018-06-18T12:45:30.194Z,28.40
2018-06-18T12:48:03.371Z,28.60
2018-06-18T12:50:36.533Z,28.70
2018-06-18T12:53:09.835Z,29.20
2018-06-18T12:55:43.008Z,29.30
2018-06-18T12:58:10.616Z,29.40
2018-06-18T13:00:38.224Z,29.50
2018-06-18T13:03:10.427Z,29.30
2018-06-18T13:05:38.050Z,29.10
2018-06-18T13:08:05.684Z,29.00
2018-06-18T13:10:33.291Z,29.10
2018-06-18T13:13:00.858Z,29.00
2018-06-18T13:15:28.519Z,28.90
2018-06-18T13:17:56.087Z,29.00
2018-06-18T13:20:23.715Z,28.80
2018-06-18T13:22:51.259Z,28.30
2018-06-18T13:25:18.865Z,27.80
2018-06-18T13:27:52.052Z,27.20
2018-06-18T13:30:19.862Z,26.80
2018-06-18T13:32:47.422Z,26.30
2018-06-18T13:35:15.001Z,26.00
2018-06-18T13:37:48.191Z,25.80
2018-06-18T13:42:26.194Z,25.50
2018-06-18T13:44:59.288Z,25.40
2018-06-18T13:47:32.331Z,25.30
2018-06-18T13:49:59.916Z,25.40
2018-06-18T13:52:27.540Z,25.40
2018-06-18T13:54:55.195Z,25.20
2018-06-18T13:57:23.111Z,25.00
2018-06-18T13:59:50.665Z,24.90
2018-06-18T14:02:18.311Z,24.80
2018-06-18T14:04:45.899Z,24.60
2018-06-18T14:07:13.469Z,24.40
2018-06-18T14:09:41.017Z,24.20
2018-06-18T14:12:08.538Z,24.00
2018-06-18T14:14:36.147Z,23.90
2018-06-18T14:17:03.835Z,23.70
2018-06-18T14:19:36.919Z,23.70
2018-06-18T14:22:04.469Z,23.70
2018-06-18T14:24:32.030Z,23.70
2018-06-18T14:26:59.603Z,23.70
2018-06-18T14:29:32.642Z,23.60
2018-06-18T14:34:33.200Z,23.40
2018-06-18T14:37:06.337Z,23.30
2018-06-18T14:39:39.489Z,23.40
2018-06-18T14:42:08.074Z,23.40
2018-06-18T14:44:36.478Z,23.40
2018-06-18T14:47:04.073Z,23.40
2018-06-18T14:51:59.128Z,23.80
2018-06-18T14:54:26.808Z,24.30
2018-06-18T14:56:56.328Z,25.30
2018-06-18T14:59:31.035Z,26.10
2018-06-18T15:01:58.858Z,26.40
2018-06-18T15:04:26.384Z,26.20
2018-06-18T15:06:53.942Z,25.80
2018-06-18T15:09:21.543Z,25.50
2018-06-18T15:11:49.131Z,25.20
2018-06-18T15:14:16.734Z,24.80
2018-06-18T15:16:44.270Z,24.50
2018-06-18T15:19:11.853Z,24.20
2018-06-18T15:21:45.784Z,23.90
2018-06-18T15:24:17.335Z,23.70
2018-06-18T15:26:44.905Z,23.60
2018-06-18T15:29:12.448Z,23.50
2018-06-18T15:31:40.018Z,23.30
2018-06-18T15:34:07.588Z,23.10
2018-06-18T15:36:35.155Z,23.00
2018-06-18T15:39:02.970Z,22.90
2018-06-18T15:41:30.553Z,22.80
2018-06-18T15:43:58.329Z,22.80
2018-06-18T15:46:25.807Z,22.80
2018-06-18T15:48:53.355Z,22.90
2018-06-18T15:51:20.950Z,23.20
2018-06-18T15:53:48.511Z,23.60
2018-06-18T15:56:16.082Z,23.90
2018-06-18T15:58:43.631Z,24.40
2018-06-18T16:01:11.170Z,24.80
2018-06-18T16:03:38.723Z,25.40
2018-06-18T16:06:06.337Z,26.20
2018-06-18T16:08:33.916Z,26.80
2018-06-18T16:11:01.493Z,27.60
2018-06-18T16:13:29.087Z,28.10
2018-06-18T16:15:56.631Z,28.50
2018-06-18T16:18:24.187Z,28.80
2018-06-18T16:20:51.782Z,29.10
2018-06-18T16:23:19.331Z,29.20
2018-06-18T16:25:46.942Z,29.30
2018-06-18T16:28:14.496Z,29.20
2018-06-18T16:30:42.054Z,28.60
2018-06-18T16:33:09.635Z,27.70
2018-06-18T16:35:37.214Z,27.10
2018-06-18T16:38:04.832Z,26.80
2018-06-18T16:40:32.378Z,26.90
2018-06-18T16:42:59.986Z,27.20
2018-06-18T16:45:27.558Z,27.50
2018-06-18T16:47:55.130Z,27.80
2018-06-18T16:50:22.750Z,28.10
2018-06-18T16:52:50.294Z,28.20
2018-06-18T16:55:17.915Z,28.10
2018-06-18T16:57:45.418Z,28.30
2018-06-18T17:00:12.986Z,28.40
2018-06-18T17:02:40.637Z,28.50
2018-06-18T17:05:08.236Z,28.50
2018-06-18T17:07:35.793Z,28.60
2018-06-18T17:10:03.490Z,28.40
2018-06-18T17:12:31.067Z,28.20
2018-06-18T17:14:58.679Z,28.10
2018-06-18T17:17:26.317Z,27.90
2018-06-18T17:19:53.910Z,27.50
2018-06-18T17:22:21.483Z,26.90
2018-06-18T17:24:49.092Z,26.50
2018-06-18T17:27:16.686Z,26.10
2018-06-18T17:29:44.264Z,25.70
2018-06-18T17:32:11.882Z,25.50
2018-06-18T17:34:39.546Z,25.30
2018-06-18T17:37:07.168Z,25.30
2018-06-18T17:39:34.807Z,25.10
2018-06-18T17:42:02.450Z,24.90
2018-06-18T17:44:30.075Z,24.70
2018-06-18T17:46:57.663Z,24.50
2018-06-18T17:49:25.273Z,24.50
2018-06-18T17:51:53.065Z,24.40
2018-06-18T17:54:20.773Z,24.20
2018-06-18T17:56:48.377Z,24.00
2018-06-18T17:59:15.976Z,23.80
2018-06-18T18:01:43.721Z,23.60
2018-06-18T18:04:11.338Z,23.60
2018-06-18T18:06:39.052Z,23.50
2018-06-18T18:09:08.479Z,23.40
2018-06-18T18:11:36.269Z,23.30
2018-06-18T18:14:03.953Z,23.20
2018-06-18T18:16:31.609Z,23.10
2018-06-18T18:18:59.279Z,23.00
2018-06-18T18:21:27.001Z,22.80
2018-06-18T18:23:54.911Z,22.60
2018-06-18T18:26:22.609Z,22.50
2018-06-18T18:28:51.102Z,22.30
2018-06-18T18:31:19.363Z,22.20
2018-06-18T18:33:47.066Z,22.10
2018-06-18T18:36:14.713Z,21.90
2018-06-18T18:38:42.349Z,21.80
2018-06-18T18:43:37.693Z,21.60
2018-06-18T18:46:05.760Z,21.60
2018-06-18T18:48:34.038Z,21.50
2018-06-18T18:51:02.710Z,21.50
2018-06-18T18:53:30.684Z,21.40
2018-06-18T18:56:09.492Z,21.30
2018-06-18T18:59:42.595Z,21.30
2018-06-18T19:02:10.507Z,21.30
2018-06-18T19:04:44.938Z,21.30
2018-06-18T19:07:13.268Z,21.20
2018-06-18T19:09:45.092Z,21.10
2018-06-18T19:12:12.719Z,21.10
2018-06-18T19:14:40.392Z,21.00
2018-06-18T19:17:08.065Z,21.00
2018-06-18T19:20:11.558Z,21.00
2018-06-18T19:22:39.507Z,21.00
2018-06-18T19:25:07.179Z,21.00
2018-06-18T19:27:35.933Z,21.00
2018-06-18T19:32:32.017Z,20.90
2018-06-18T19:34:59.775Z,20.80
2018-06-18T19:37:27.514Z,20.80
2018-06-18T19:39:55.460Z,20.60
2018-06-18T19:42:23.691Z,20.40
2018-06-18T19:44:51.332Z,20.40
2018-06-18T19:47:34.498Z,20.20
2018-06-18T19:50:02.141Z,20.10
2018-06-18T19:52:30.515Z,20.00
2018-06-18T19:55:02.028Z,20.00
2018-06-18T19:57:30.062Z,19.90
2018-06-18T19:59:57.806Z,19.80
2018-06-18T20:02:25.574Z,19.70
2018-06-18T20:04:53.227Z,19.60
2018-06-18T20:07:22.274Z,19.40
2018-06-18T20:09:49.971Z,19.30
2018-06-18T20:12:17.633Z,19.20
2018-06-18T20:14:45.448Z,19.20
2018-06-18T20:17:13.099Z,19.10
2018-06-18T20:19:41.027Z,19.00
2018-06-18T20:22:08.708Z,19.00
2018-06-18T20:24:37.998Z,19.00
2018-06-18T20:27:05.684Z,18.90
2018-06-18T20:29:33.311Z,18.90
2018-06-18T20:32:01.073Z,18.80
2018-06-18T20:34:28.719Z,18.80
2018-06-18T20:36:56.389Z,18.70
2018-06-18T20:39:24.290Z,18.70
2018-06-18T20:41:51.903Z,18.60
2018-06-18T20:44:21.422Z,18.60
2018-06-18T20:46:49.051Z,18.50
2018-06-18T20:49:16.784Z,18.50
2018-06-18T20:51:44.852Z,18.40
2018-06-18T20:54:12.680Z,18.40
2018-06-18T20:56:40.604Z,18.30
2018-06-18T20:59:09.781Z,18.30
2018-06-18T21:01:37.435Z,18.20
2018-06-18T21:04:05.168Z,18.20
2018-06-18T21:06:32.722Z,18.10
2018-06-18T21:09:00.288Z,18.10
2018-06-18T21:11:27.855Z,18.10
2018-06-18T21:13:55.636Z,18.10
2018-06-18T21:16:23.181Z,18.00
2018-06-18T21:18:50.804Z,17.90
2018-06-18T21:21:18.339Z,17.90
2018-06-18T21:23:45.886Z,17.80
2018-06-18T21:26:13.394Z,17.80
2018-06-18T21:28:40.968Z,17.80
2018-06-18T21:31:08.531Z,17.70
2018-06-18T21:33:36.167Z,17.70
2018-06-18T21:36:03.802Z,17.60
2018-06-18T21:38:31.338Z,17.60
2018-06-18T21:40:58.921Z,17.60
2018-06-18T21:43:26.673Z,17.60
2018-06-18T21:45:54.290Z,17.50
2018-06-18T21:48:21.819Z,17.50
2018-06-18T21:50:49.358Z,17.40
2018-06-18T21:53:16.933Z,17.40
2018-06-18T21:55:44.518Z,17.40
2018-06-18T21:58:12.157Z,17.40
2018-06-18T22:00:44.287Z,17.40
2018-06-18T22:03:11.795Z,17.30
2018-06-18T22:05:39.447Z,17.30
2018-06-18T22:08:08.873Z,17.30
2018-06-18T22:10:36.433Z,17.20
2018-06-18T22:13:04.097Z,17.10
2018-06-18T22:15:31.687Z,17.10
2018-06-18T22:20:26.941Z,17.00
2018-06-18T22:22:54.501Z,16.90
2018-06-18T22:25:22.060Z,16.90
2018-06-18T22:27:49.656Z,16.90
2018-06-18T22:30:17.281Z,16.90
2018-06-18T22:32:44.806Z,16.80
2018-06-18T22:35:12.517Z,16.80
2018-06-18T22:37:40.041Z,16.80
2018-06-18T22:40:07.683Z,16.70
2018-06-18T22:42:35.247Z,16.70
2018-06-18T22:45:02.853Z,16.70
2018-06-18T22:47:30.419Z,16.60
2018-06-18T22:49:58.019Z,16.60
2018-06-18T22:52:25.571Z,16.50
2018-06-18T22:54:53.121Z,16.50
2018-06-18T22:57:20.723Z,16.40
2018-06-18T22:59:48.291Z,16.40
2018-06-18T23:02:18.826Z,16.40
2018-06-18T23:04:46.369Z,16.40
2018-06-18T23:07:14.021Z,16.40
2018-06-18T23:09:41.587Z,16.40
2018-06-18T23:12:09.156Z,16.30
2018-06-18T23:14:37.150Z,16.30
2018-06-18T23:17:04.752Z,16.20
2018-06-18T23:19:32.394Z,16.20
2018-06-18T23:22:00.835Z,16.20
2018-06-18T23:24:28.416Z,16.20
2018-06-18T23:26:56.029Z,16.20
2018-06-18T23:29:23.602Z,16.20
2018-06-18T23:31:51.166Z,16.10
2018-06-18T23:34:18.770Z,16.10
2018-06-18T23:36:46.376Z,16.10
2018-06-18T23:39:13.916Z,16.10
2018-06-18T23:41:44.586Z,16.10
2018-06-18T23:44:12.141Z,16.10
2018-06-18T23:46:39.653Z,16.10
2018-06-18T23:49:07.221Z,16.10
2018-06-18T23:51:34.775Z,16.10
2018-06-18T23:54:02.345Z,16.00
2018-06-18T23:56:29.917Z,16.00
2018-06-18T23:58:57.472Z,16.00
